| time (UTC) | temp F | wind direction | speed MPH | gust MPH | rain 1hr in | rain 24hr in | rain mn in | humidity % | barometer mb |
| 20260502200010 | 71 | 345 | 1.0 | 26.0 | 0.00 | 0.01 | 0.01 | 40 | 1019.5 |
| 20260502194509 | 70 | 23 | 8.0 | 10.0 | 0.00 | 0.01 | 0.01 | 41 | 1019.6 |
| 20260502193007 | 69 | 7 | 5.0 | 12.0 | 0.00 | 0.01 | 0.01 | 40 | 1019.7 |
| 20260502191505 | 69 | 50 | 3.0 | 9.0 | 0.00 | 0.01 | 0.01 | 41 | 1019.9 |
| 20260502190004 | 68 | 70 | 2.0 | 9.0 | 0.00 | 0.01 | 0.01 | 42 | 1020.0 |
| 20260502184507 | 68 | 76 | 4.0 | 11.0 | 0.00 | 0.01 | 0.01 | 45 | 1020.1 |
| 20260502183002 | 69 | 58 | 0.0 | 8.0 | 0.00 | 0.01 | 0.01 | 47 | 1020.3 |
| 20260502181559 | 68 | 43 | 6.0 | 10.0 | 0.00 | 0.01 | 0.01 | 43 | 1020.5 |
| 20260502163050 | 63 | 65 | 4.0 | 5.0 | 0.00 | 0.01 | 0.01 | 53 | 1021.0 |
| 20260502161608 | 63 | 348 | 2.0 | 6.0 | 0.00 | 0.01 | 0.01 | 53 | 1021.0 |
| 20260502160104 | 64 | 1 | 1.0 | 3.0 | 0.00 | 0.01 | 0.01 | 51 | 1020.9 |
| 20260502151542 | 61 | 255 | 2.0 | 8.0 | 0.00 | 0.01 | 0.01 | 53 | 1020.5 |
| 20260502123012 | 51 | 248 | 0.0 | 2.0 | 0.00 | 0.01 | 0.01 | 77 | 1020.6 |
| 20260502121510 | 49 | 210 | 0.0 | 2.0 | 0.00 | 0.01 | 0.01 | 80 | 1020.3 |
| 20260502114506 | 48 | 259 | 0.0 | 1.0 | 0.01 | 0.01 | 0.01 | 80 | 1020.0 |
| 20260502113005 | 49 | 162 | 0.0 | 2.0 | 0.01 | 0.01 | 0.01 | 78 | 1020.0 |
| 20260502111504 | 50 | 115 | 0.0 | 0.0 | 0.01 | 0.01 | 0.01 | 76 | 1019.9 |
| 20260502110004 | 51 | 128 | 2.0 | 4.0 | 0.00 | 0.00 | 0.00 | 73 | 1019.8 |
| 20260502104503 | 51 | 5 | 3.0 | 11.0 | 0.00 | 0.00 | 0.00 | 71 | 1020.8 |
| 20260502103003 | 52 | 47 | 6.0 | 9.0 | 0.00 | 0.00 | 0.00 | 68 | 1020.8 |
| 20260502101501 | 52 | 33 | 4.0 | 7.0 | 0.00 | 0.00 | 0.00 | 66 | 1020.5 |
| 20260502070043 | 49 | 242 | 0.0 | 3.0 | 0.00 | 0.00 | 0.00 | 69 | 1018.5 |
| 20260502064543 | 50 | 240 | 0.0 | 2.0 | 0.00 | 0.00 | 0.00 | 69 | 1018.8 |
| 20260502063053 | 50 | 172 | 0.0 | 2.0 | 0.00 | 0.00 | 0.00 | 69 | 1018.7 |
| 20260502061540 | 49 | 221 | 0.0 | 1.0 | 0.00 | 0.00 | 0.00 | 71 | 1018.9 |
| 20260502060040 | 49 | 220 | 0.0 | 0.0 | 0.00 | 0.00 | 0.00 | 71 | 1018.9 |
| 20260502054539 | 50 | 171 | 0.0 | 1.0 | 0.00 | 0.00 | 0.00 | 71 | 1018.9 |
| 20260502053040 | 50 | 171 | 0.0 | 0.0 | 0.00 | 0.00 | 0.00 | 69 | 1018.9 |
| 20260502051536 | 51 | 171 | 0.0 | 0.0 | 0.00 | 0.00 | 0.00 | 67 | 1018.9 |
| 20260502050036 | 51 | 171 | 0.0 | 0.0 | 0.00 | 0.00 | 0.00 | 67 | 1018.8 |
| 20260502044530 | 52 | 171 | 0.0 | 1.0 | 0.00 | 0.00 | 0.00 | 64 | 1018.8 |
| 20260502043030 | 53 | 170 | 0.0 | 0.0 | 0.00 | 0.00 | 0.00 | 63 | 1018.8 |
| 20260502041531 | 54 | 170 | 0.0 | 0.0 | 0.00 | 0.00 | 0.00 | 62 | 1018.8 |
| 20260502040029 | 55 | 170 | 0.0 | 2.0 | 0.00 | 0.00 | 0.00 | 61 | 1018.7 |
| 20260502034529 | 55 | 148 | 0.0 | 2.0 | 0.00 | 0.00 | 0.00 | 60 | 1018.7 |
| 20260502033034 | 56 | 145 | 0.0 | 2.0 | 0.00 | 0.00 | 0.00 | 58 | 1018.7 |
| 20260502031528 | 56 | 151 | 0.0 | 2.0 | 0.00 | 0.00 | 0.00 | 58 | 1018.7 |
| 20260502030031 | 56 | 168 | 0.0 | 1.0 | 0.00 | 0.00 | 0.00 | 58 | 1018.6 |
| 20260502024527 | 56 | 171 | 0.0 | 1.0 | 0.00 | 0.00 | 0.00 | 58 | 1018.5 |
| 20260502023027 | 57 | 172 | 0.0 | 0.0 | 0.00 | 0.00 | 0.00 | 57 | 1018.4 |
| 20260502021526 | 58 | 171 | 0.0 | 0.0 | 0.00 | 0.00 | 0.00 | 55 | 1018.1 |
| 20260502020025 | 59 | 171 | 0.0 | 1.0 | 0.00 | 0.00 | 0.00 | 54 | 1017.9 |
| 20260502014527 | 60 | 109 | 0.0 | 1.0 | 0.00 | 0.00 | 0.00 | 51 | 1017.7 |
| 20260502013024 | 61 | 108 | 0.0 | 1.0 | 0.00 | 0.00 | 0.00 | 49 | 1017.5 |
| 20260502011524 | 62 | 100 | 0.0 | 2.0 | 0.00 | 0.00 | 0.00 | 46 | 1017.3 |
| 20260502010030 | 63 | 101 | 0.0 | 2.0 | 0.00 | 0.00 | 0.00 | 45 | 1017.1 |
| 20260502004541 | 64 | 85 | 0.0 | 3.0 | 0.00 | 0.00 | 0.00 | 42 | 1017.0 |
| 20260502003021 | 64 | 75 | 2.0 | 6.0 | 0.00 | 0.00 | 0.00 | 42 | 1016.9 |
| 20260502001520 | 65 | 61 | 4.0 | 10.0 | 0.00 | 0.00 | 0.00 | 40 | 1016.8 |
| 20260502000019 | 65 | 70 | 2.0 | 9.0 | 0.00 | 0.00 | 0.00 | 40 | 1016.7 |
| 20260501234514 | 65 | 46 | 4.0 | 10.0 | 0.00 | 0.00 | 0.00 | 41 | 1016.7 |
| 20260501233015 | 66 | 79 | 5.0 | 10.0 | 0.00 | 0.00 | 0.00 | 38 | 1016.6 |
| 20260501231518 | 66 | 64 | 3.0 | 12.0 | 0.00 | 0.00 | 0.00 | 39 | 1016.5 |
| 20260501230013 | 67 | 51 | 7.0 | 12.0 | 0.00 | 0.00 | 0.00 | 38 | 1016.4 |
| 20260501224514 | 67 | 70 | 6.0 | 11.0 | 0.00 | 0.00 | 0.00 | 37 | 1016.3 |
| 20260501223013 | 66 | 68 | 9.0 | 13.0 | 0.00 | 0.00 | 0.00 | 35 | 1016.2 |
| 20260501221512 | 67 | 77 | 8.0 | 14.0 | 0.00 | 0.00 | 0.00 | 35 | 1016.2 |
| 20260501220011 | 67 | 51 | 10.0 | 17.0 | 0.00 | 0.00 | 0.00 | 37 | 1016.1 |
| 20260501214514 | 68 | 84 | 7.0 | 19.0 | 0.00 | 0.00 | 0.00 | 39 | 1016.0 |
| 20260501213027 | 68 | 58 | 11.0 | 17.0 | 0.00 | 0.00 | 0.00 | 36 | 1016.1 |
| 20260501211508 | 67 | 58 | 11.0 | 20.0 | 0.00 | 0.00 | 0.00 | 39 | 1016.2 |
| 20260501210015 | 68 | 44 | 10.0 | 17.0 | 0.00 | 0.00 | 0.00 | 35 | 1016.3 |
| 20260501204505 | 67 | 27 | 13.0 | 19.0 | 0.00 | 0.00 | 0.00 | 34 | 1016.5 |
| 20260501203002 | 67 | 32 | 13.0 | 21.0 | 0.00 | 0.00 | 0.00 | 36 | 1016.7 |
| 20260501201501 | 67 | 23 | 13.0 | 18.0 | 0.00 | 0.00 | 0.00 | 35 | 1016.8 |